createdAt,value
2022-09-17T00:00:52.476Z,23.73
2022-09-17T00:03:19.226Z,22.65
2022-09-17T00:05:45.765Z,22.52
2022-09-17T00:08:14.981Z,25.15
2022-09-17T00:10:44.749Z,21.58
2022-09-17T00:13:12.231Z,18.00
2022-09-17T00:15:43.726Z,18.02
2022-09-17T00:18:11.200Z,17.13
2022-09-17T00:20:47.411Z,15.73
2022-09-17T00:23:14.923Z,16.38
2022-09-17T00:25:44.148Z,17.20
2022-09-17T00:28:12.049Z,17.05
2022-09-17T00:30:43.838Z,15.93
2022-09-17T00:33:16.903Z,16.40
2022-09-17T00:35:44.422Z,15.32
2022-09-17T00:38:11.496Z,14.45
2022-09-17T00:40:38.824Z,14.50
2022-09-17T00:43:11.755Z,15.38
2022-09-17T00:45:40.048Z,13.50
2022-09-17T00:48:07.022Z,16.67
2022-09-17T00:50:41.836Z,17.05
2022-09-17T00:53:13.840Z,15.25
2022-09-17T00:58:14.999Z,16.50
2022-09-17T01:00:41.622Z,14.15
2022-09-17T01:03:08.834Z,15.98
2022-09-17T01:06:01.452Z,15.23
2022-09-17T01:09:06.400Z,15.07
2022-09-17T01:11:48.099Z,15.10
2022-09-17T01:14:35.629Z,14.82
2022-09-17T01:17:27.579Z,15.40
2022-09-17T01:20:19.121Z,10.68
2022-09-17T01:23:23.308Z,15.77
2022-09-17T01:25:52.588Z,15.98
2022-09-17T01:28:18.999Z,17.60
2022-09-17T01:31:11.677Z,15.10
2022-09-17T01:33:46.577Z,18.25
2022-09-17T01:36:52.565Z,17.02
2022-09-17T01:39:32.395Z,19.67
2022-09-17T01:42:10.804Z,18.40
2022-09-17T01:44:55.709Z,18.13
2022-09-17T01:47:35.639Z,19.15
2022-09-17T01:50:10.561Z,18.67
2022-09-17T01:52:40.456Z,18.50
2022-09-17T01:55:13.115Z,18.67
2022-09-17T01:57:47.477Z,19.15
2022-09-17T02:00:17.185Z,18.95
2022-09-17T02:03:06.402Z,19.83
2022-09-17T02:06:03.132Z,18.88
2022-09-17T02:08:42.309Z,17.77
2022-09-17T02:11:12.345Z,31.08
2022-09-17T02:13:56.051Z,26.27
2022-09-17T02:16:26.873Z,23.83
2022-09-17T02:19:09.158Z,37.17
2022-09-17T02:24:18.140Z,27.23
2022-09-17T02:27:06.811Z,19.13
2022-09-17T02:29:36.845Z,18.27
2022-09-17T02:32:04.466Z,26.83
2022-09-17T02:34:31.499Z,17.65
2022-09-17T02:36:59.512Z,16.63
2022-09-17T02:39:26.858Z,18.52
2022-09-17T02:42:08.353Z,18.83
2022-09-17T02:44:40.616Z,17.33
2022-09-17T02:50:18.024Z,17.30
2022-09-17T02:52:50.731Z,16.95
2022-09-17T02:55:28.180Z,16.65
2022-09-17T02:58:10.257Z,17.83
2022-09-17T03:00:39.468Z,22.60
2022-09-17T03:03:21.976Z,22.35
2022-09-17T03:05:49.869Z,25.00
2022-09-17T03:08:20.127Z,23.63
2022-09-17T03:10:49.164Z,20.33
2022-09-17T03:13:16.309Z,27.40
2022-09-17T03:15:43.212Z,26.70
2022-09-17T03:18:09.900Z,23.38
2022-09-17T03:20:36.761Z,24.38
2022-09-17T03:23:03.273Z,25.27
2022-09-17T03:25:29.879Z,25.02
2022-09-17T03:27:56.688Z,27.02
2022-09-17T03:30:23.276Z,25.90
2022-09-17T03:32:49.812Z,24.63
2022-09-17T03:35:16.380Z,23.55
2022-09-17T03:37:43.119Z,24.73
2022-09-17T03:40:10.415Z,24.42
2022-09-17T03:42:37.020Z,24.48
2022-09-17T03:45:03.905Z,22.77
2022-09-17T03:47:31.003Z,35.25
2022-09-17T03:49:57.745Z,37.30
2022-09-17T03:52:24.309Z,46.15
2022-09-17T03:54:50.989Z,24.77
2022-09-17T03:57:17.463Z,22.42
2022-09-17T03:59:44.001Z,23.10
2022-09-17T04:02:10.630Z,19.55
2022-09-17T04:04:37.748Z,21.48
2022-09-17T04:07:04.796Z,29.92
2022-09-17T04:09:33.287Z,35.00
2022-09-17T04:12:02.071Z,34.30
2022-09-17T04:14:28.611Z,29.58
2022-09-17T04:16:55.225Z,22.55
2022-09-17T04:19:21.733Z,34.63
2022-09-17T04:21:48.608Z,27.80
2022-09-17T04:24:15.367Z,27.38
2022-09-17T04:26:41.952Z,25.38
2022-09-17T04:29:10.035Z,23.23
2022-09-17T04:31:36.904Z,27.80
2022-09-17T04:34:03.640Z,28.13
2022-09-17T04:36:30.195Z,26.10
2022-09-17T04:38:56.803Z,20.05
2022-09-17T04:41:23.381Z,18.02
2022-09-17T04:43:50.244Z,19.75
2022-09-17T04:46:16.942Z,26.60
2022-09-17T04:48:43.630Z,20.77
2022-09-17T04:51:10.270Z,18.88
2022-09-17T04:53:38.485Z,20.73
2022-09-17T04:56:05.454Z,23.33
2022-09-17T04:58:32.938Z,20.05
2022-09-17T05:00:59.871Z,20.20
2022-09-17T05:03:26.601Z,18.80
2022-09-17T05:05:53.200Z,19.23
2022-09-17T05:08:19.796Z,18.23
2022-09-17T05:10:46.392Z,18.10
2022-09-17T05:13:12.931Z,19.60
2022-09-17T05:15:39.479Z,19.08
2022-09-17T05:18:06.085Z,19.75
2022-09-17T05:20:32.674Z,19.23
2022-09-17T05:22:59.289Z,21.73
2022-09-17T05:25:26.115Z,20.33
2022-09-17T05:27:53.944Z,20.08
2022-09-17T05:30:21.096Z,20.58
2022-09-17T05:32:47.929Z,21.27
2022-09-17T05:35:14.539Z,21.30
2022-09-17T05:37:41.277Z,21.80
2022-09-17T05:40:09.349Z,22.20
2022-09-17T05:42:36.323Z,23.20
2022-09-17T05:45:03.899Z,24.10
2022-09-17T05:47:30.460Z,25.40
2022-09-17T05:49:57.020Z,25.15
2022-09-17T05:52:28.099Z,23.02
2022-09-17T05:54:55.591Z,22.75
2022-09-17T05:57:22.325Z,21.92
2022-09-17T05:59:49.356Z,21.02
2022-09-17T06:02:15.956Z,23.25
2022-09-17T06:04:42.579Z,21.63
2022-09-17T06:07:09.314Z,39.13
2022-09-17T06:09:37.594Z,40.22
2022-09-17T06:12:05.113Z,29.45
2022-09-17T06:14:31.755Z,29.85
2022-09-17T06:16:58.280Z,30.10
2022-09-17T06:19:24.860Z,28.00
2022-09-17T06:21:52.620Z,28.52
2022-09-17T06:24:19.181Z,32.67
2022-09-17T06:26:45.753Z,35.22
2022-09-17T06:29:15.117Z,24.63
2022-09-17T06:31:44.645Z,23.55
2022-09-17T06:34:11.847Z,23.38
2022-09-17T06:36:38.443Z,20.13
2022-09-17T06:39:05.060Z,21.42
2022-09-17T06:41:31.652Z,19.38
2022-09-17T06:43:58.689Z,15.23
2022-09-17T06:46:25.752Z,12.23
2022-09-17T06:48:52.425Z,12.07
2022-09-17T06:51:19.094Z,9.98
2022-09-17T06:53:45.665Z,8.60
2022-09-17T06:56:12.233Z,9.65
2022-09-17T06:58:39.647Z,9.18
2022-09-17T07:01:06.500Z,7.80
2022-09-17T07:03:33.795Z,9.75
2022-09-17T07:06:00.526Z,7.10
2022-09-17T07:08:27.376Z,7.65
2022-09-17T07:10:58.424Z,7.72
2022-09-17T07:13:25.546Z,6.37
2022-09-17T07:15:57.898Z,7.90
2022-09-17T07:18:25.285Z,8.15
2022-09-17T07:21:02.880Z,9.07
2022-09-17T07:23:35.351Z,10.27
2022-09-17T07:26:05.108Z,11.68
2022-09-17T07:28:32.877Z,12.15
2022-09-17T07:31:03.803Z,12.07
2022-09-17T07:33:30.548Z,12.02
2022-09-17T07:35:59.583Z,10.57
2022-09-17T07:38:27.392Z,10.95
2022-09-17T07:41:09.839Z,10.25
2022-09-17T07:43:36.810Z,8.00
2022-09-17T07:46:05.352Z,6.80
2022-09-17T07:48:32.736Z,5.65
2022-09-17T07:50:59.337Z,5.85
2022-09-17T07:53:27.043Z,5.40
2022-09-17T07:55:55.451Z,5.22
2022-09-17T07:58:33.829Z,5.35
2022-09-17T08:01:05.297Z,5.55
2022-09-17T08:03:31.945Z,5.05
2022-09-17T08:06:10.135Z,5.72
2022-09-17T08:08:39.427Z,5.35
2022-09-17T08:11:11.512Z,4.75
2022-09-17T08:13:38.509Z,4.47
2022-09-17T08:16:07.535Z,5.20
2022-09-17T08:18:35.675Z,5.68
2022-09-17T08:21:04.728Z,5.32
2022-09-17T08:23:34.048Z,5.25
2022-09-17T08:26:00.945Z,4.65
2022-09-17T08:28:30.052Z,5.43
2022-09-17T08:31:19.213Z,4.60
2022-09-17T08:33:47.303Z,4.05
2022-09-17T08:36:15.889Z,4.45
2022-09-17T08:38:42.544Z,4.93
2022-09-17T08:41:28.824Z,4.43
2022-09-17T08:44:07.485Z,5.35
2022-09-17T08:46:42.692Z,3.78
2022-09-17T08:49:34.174Z,5.30
2022-09-17T08:52:37.684Z,3.97
2022-09-17T08:55:33.903Z,4.80
2022-09-17T08:58:05.093Z,3.65
2022-09-17T09:00:57.515Z,4.37
2022-09-17T09:06:10.480Z,4.30
2022-09-17T09:08:51.323Z,4.43
2022-09-17T09:11:26.404Z,3.83
2022-09-17T09:14:05.456Z,4.97
2022-09-17T09:16:37.817Z,4.63
2022-09-17T09:19:28.270Z,3.83
2022-09-17T09:22:13.685Z,4.43
2022-09-17T09:25:12.684Z,4.00
2022-09-17T09:27:56.477Z,4.38
2022-09-17T09:30:24.938Z,4.65
2022-09-17T09:36:15.783Z,4.53
2022-09-17T09:38:57.764Z,4.43
2022-09-17T09:41:31.832Z,4.07
2022-09-17T09:44:04.794Z,3.90
2022-09-17T09:46:55.479Z,4.20
2022-09-17T09:49:48.331Z,4.57
2022-09-17T09:52:23.958Z,4.25
2022-09-17T09:55:26.387Z,3.20
2022-09-17T10:00:55.182Z,4.13
2022-09-17T10:03:26.361Z,4.13
2022-09-17T10:06:02.041Z,3.57
2022-09-17T10:08:33.132Z,4.28
2022-09-17T10:11:18.000Z,3.53
2022-09-17T10:13:44.603Z,2.78
2022-09-17T10:16:26.191Z,3.38
2022-09-17T10:19:07.907Z,4.93
2022-09-17T10:21:36.702Z,3.90
2022-09-17T10:24:05.253Z,4.18
2022-09-17T10:26:36.956Z,3.08
2022-09-17T10:29:06.676Z,3.42
2022-09-17T10:31:54.633Z,2.80
2022-09-17T10:34:41.177Z,3.47
2022-09-17T10:37:32.703Z,3.42
2022-09-17T10:39:59.329Z,3.78
2022-09-17T10:42:25.843Z,3.65
2022-09-17T10:44:57.274Z,4.32
2022-09-17T10:47:36.091Z,2.92
2022-09-17T10:50:08.329Z,3.97
2022-09-17T10:52:38.109Z,4.85
2022-09-17T10:55:29.553Z,4.18
2022-09-17T10:58:07.142Z,4.23
2022-09-17T11:01:11.007Z,3.70
2022-09-17T11:03:56.501Z,3.47
2022-09-17T11:06:54.580Z,3.40
2022-09-17T11:09:33.334Z,3.75
2022-09-17T11:12:30.659Z,3.70
2022-09-17T11:15:18.269Z,4.13
2022-09-17T11:18:05.840Z,4.00
2022-09-17T11:20:54.213Z,4.93
2022-09-17T11:23:54.828Z,4.35
2022-09-17T11:26:46.079Z,4.13
2022-09-17T11:29:50.971Z,4.05
2022-09-17T11:32:35.980Z,4.82
2022-09-17T11:35:17.444Z,5.10
2022-09-17T11:38:06.484Z,4.38
2022-09-17T11:40:43.484Z,4.25
2022-09-17T11:43:25.837Z,4.97
2022-09-17T11:46:25.296Z,5.63
2022-09-17T11:48:55.389Z,4.78
2022-09-17T11:51:32.761Z,5.25
2022-09-17T11:54:20.878Z,5.00
2022-09-17T11:57:27.950Z,6.05
2022-09-17T11:59:57.091Z,6.78
2022-09-17T12:02:33.121Z,5.22
2022-09-17T12:05:08.623Z,7.15
2022-09-17T12:07:54.744Z,5.57
2022-09-17T12:10:42.265Z,7.80
2022-09-17T12:13:30.743Z,5.57
2022-09-17T12:16:25.365Z,7.07
2022-09-17T12:19:05.534Z,5.43
2022-09-17T12:21:40.929Z,4.97
2022-09-17T12:24:25.339Z,5.50
2022-09-17T12:27:08.255Z,5.65
2022-09-17T12:30:07.009Z,5.75
2022-09-17T12:32:43.313Z,6.80
2022-09-17T12:36:03.660Z,7.72
2022-09-17T12:39:03.515Z,4.90
2022-09-17T12:41:39.165Z,3.83
2022-09-17T12:44:11.945Z,4.68
2022-09-17T12:46:53.866Z,6.70
2022-09-17T12:49:43.851Z,4.80
2022-09-17T12:52:25.715Z,4.80
2022-09-17T12:55:04.098Z,5.25
2022-09-17T12:58:00.893Z,4.93
2022-09-17T13:00:41.445Z,5.00
2022-09-17T13:03:16.317Z,5.20
2022-09-17T13:06:22.245Z,5.38
2022-09-17T13:09:16.591Z,4.43
2022-09-17T13:11:55.022Z,4.55
2022-09-17T13:14:25.396Z,5.47
2022-09-17T13:17:19.483Z,5.38
2022-09-17T13:19:52.880Z,5.93
2022-09-17T13:22:23.480Z,5.60
2022-09-17T13:25:09.584Z,6.15
2022-09-17T13:27:38.206Z,5.03
2022-09-17T13:30:10.956Z,6.03
2022-09-17T13:32:39.691Z,5.25
2022-09-17T13:35:15.093Z,4.80
2022-09-17T13:37:53.788Z,5.53
2022-09-17T13:40:29.433Z,5.30
2022-09-17T13:43:08.397Z,6.28
2022-09-17T13:46:01.065Z,6.45
2022-09-17T13:48:34.509Z,6.13
2022-09-17T13:51:39.129Z,5.75
2022-09-17T13:54:08.549Z,6.63
2022-09-17T13:56:46.027Z,5.65
2022-09-17T13:59:20.703Z,6.57
2022-09-17T14:01:56.351Z,6.60
2022-09-17T14:04:41.083Z,7.88
2022-09-17T14:07:26.698Z,7.05
2022-09-17T14:10:25.777Z,6.63
2022-09-17T14:12:56.080Z,6.53
2022-09-17T14:15:36.546Z,6.80
2022-09-17T14:18:28.825Z,7.10
2022-09-17T14:23:34.175Z,6.78
2022-09-17T14:28:28.740Z,9.27
2022-09-17T14:30:55.455Z,13.65
2022-09-17T14:33:31.901Z,9.68
2022-09-17T14:36:10.670Z,6.38
2022-09-17T14:38:38.467Z,7.07
2022-09-17T14:41:24.321Z,6.07
2022-09-17T14:44:08.337Z,6.63
2022-09-17T14:47:10.462Z,6.03
2022-09-17T14:49:39.907Z,5.68
2022-09-17T14:52:28.086Z,8.10
2022-09-17T14:55:15.433Z,7.28
2022-09-17T14:57:44.132Z,6.90
2022-09-17T15:00:31.409Z,7.00
2022-09-17T15:03:00.655Z,6.80
2022-09-17T15:05:33.684Z,6.32
2022-09-17T15:08:11.270Z,5.55
2022-09-17T15:10:47.004Z,6.25
2022-09-17T15:13:53.078Z,6.03
2022-09-17T15:16:25.404Z,5.10
2022-09-17T15:18:53.137Z,6.15
2022-09-17T15:21:40.044Z,9.25
2022-09-17T15:24:27.667Z,20.90
2022-09-17T15:26:58.948Z,10.00
2022-09-17T15:29:30.027Z,8.18
2022-09-17T15:31:57.087Z,7.15
2022-09-17T15:34:23.785Z,6.55
2022-09-17T15:37:21.028Z,6.78
2022-09-17T15:39:54.592Z,5.97
2022-09-17T15:42:27.991Z,5.70
2022-09-17T15:45:22.133Z,6.85
2022-09-17T15:47:51.114Z,6.70
2022-09-17T15:50:29.676Z,7.10
2022-09-17T15:53:13.387Z,9.13
2022-09-17T15:56:05.131Z,8.32
2022-09-17T15:58:35.639Z,9.70
2022-09-17T16:01:14.659Z,6.93
2022-09-17T16:03:41.744Z,7.55
2022-09-17T16:06:20.845Z,8.48
2022-09-17T16:08:51.534Z,8.50
2022-09-17T16:11:22.907Z,10.10
2022-09-17T16:13:53.847Z,9.13
2022-09-17T16:16:22.957Z,10.00
2022-09-17T16:18:50.356Z,11.68
2022-09-17T16:21:18.552Z,9.65
2022-09-17T16:23:46.088Z,9.55
2022-09-17T16:26:17.181Z,9.38
2022-09-17T16:28:48.474Z,9.03
2022-09-17T16:31:15.433Z,8.47
2022-09-17T16:33:41.980Z,9.75
2022-09-17T16:36:08.615Z,8.07
2022-09-17T16:38:36.040Z,9.30
2022-09-17T16:41:05.148Z,8.27
2022-09-17T16:43:34.610Z,8.77
2022-09-17T16:46:03.137Z,9.73
2022-09-17T16:48:29.804Z,9.95
2022-09-17T16:50:56.401Z,9.00
2022-09-17T16:53:22.896Z,9.27
2022-09-17T16:55:49.460Z,9.05
2022-09-17T16:58:16.188Z,10.20
2022-09-17T17:00:43.318Z,10.98
2022-09-17T17:03:13.263Z,10.73
2022-09-17T17:05:40.276Z,10.55
2022-09-17T17:08:08.764Z,9.57
2022-09-17T17:10:37.859Z,9.60
2022-09-17T17:13:05.148Z,10.60
2022-09-17T17:15:34.636Z,10.75
2022-09-17T17:18:01.130Z,11.35
2022-09-17T17:20:27.873Z,11.15
2022-09-17T17:22:55.261Z,11.18
2022-09-17T17:25:23.647Z,10.93
2022-09-17T17:27:50.567Z,10.93
2022-09-17T17:30:19.279Z,11.85
2022-09-17T17:32:50.471Z,13.23
2022-09-17T17:35:17.384Z,11.77
2022-09-17T17:37:43.869Z,11.40
2022-09-17T17:40:10.786Z,11.55
2022-09-17T17:42:39.433Z,11.35
2022-09-17T17:45:07.778Z,12.15
2022-09-17T17:47:34.883Z,11.40
2022-09-17T17:50:01.617Z,12.55
2022-09-17T17:52:28.251Z,12.80
2022-09-17T17:54:55.177Z,11.93
2022-09-17T17:57:21.791Z,10.95
2022-09-17T17:59:48.345Z,10.90
2022-09-17T18:02:14.990Z,11.73
2022-09-17T18:04:41.681Z,11.10
2022-09-17T18:07:08.187Z,10.20
2022-09-17T18:09:35.511Z,10.75
2022-09-17T18:12:02.215Z,12.02
2022-09-17T18:14:28.825Z,10.00
2022-09-17T18:16:55.453Z,11.10
2022-09-17T18:19:22.010Z,14.15
2022-09-17T18:21:48.564Z,13.70
2022-09-17T18:24:15.163Z,14.93
2022-09-17T18:26:41.653Z,13.07
2022-09-17T18:29:08.510Z,14.30
2022-09-17T18:31:36.170Z,14.50
2022-09-17T18:34:07.196Z,15.32
2022-09-17T18:36:35.579Z,14.63
2022-09-17T18:41:53.245Z,16.52
2022-09-17T18:44:21.640Z,15.02
2022-09-17T18:46:50.075Z,17.15
2022-09-17T18:49:17.129Z,15.50
2022-09-17T18:51:43.907Z,16.27
2022-09-17T18:54:12.540Z,16.55
2022-09-17T18:56:41.425Z,16.10
2022-09-17T18:59:08.509Z,16.88
2022-09-17T19:01:35.726Z,17.17
2022-09-17T19:04:03.196Z,16.35
2022-09-17T19:06:31.875Z,15.13
2022-09-17T19:09:01.940Z,14.40
2022-09-17T19:11:29.060Z,16.08
2022-09-17T19:13:55.785Z,15.05
2022-09-17T19:16:22.719Z,14.65
2022-09-17T19:18:50.778Z,16.48
2022-09-17T19:21:20.611Z,17.10
2022-09-17T19:23:49.492Z,17.25
2022-09-17T19:26:22.367Z,16.50
2022-09-17T19:28:55.262Z,18.10
2022-09-17T19:31:22.467Z,19.10
2022-09-17T19:33:51.518Z,17.05
2022-09-17T19:36:19.292Z,17.42
2022-09-17T19:38:46.617Z,18.48
2022-09-17T19:41:23.044Z,19.65
2022-09-17T19:43:54.065Z,18.85
2022-09-17T19:46:24.047Z,19.42
2022-09-17T19:48:56.174Z,17.38
2022-09-17T19:53:50.899Z,17.95
2022-09-17T19:56:21.580Z,19.40
2022-09-17T19:58:48.448Z,19.73
2022-09-17T20:01:15.439Z,18.58
2022-09-17T20:03:44.093Z,18.65
2022-09-17T20:06:22.987Z,19.10
2022-09-17T20:09:04.295Z,19.45
2022-09-17T20:11:42.627Z,19.48
2022-09-17T20:17:03.901Z,19.93
2022-09-17T20:19:30.674Z,21.88
2022-09-17T20:21:57.154Z,20.33
2022-09-17T20:24:23.856Z,19.90
2022-09-17T20:26:50.374Z,19.55
2022-09-17T20:29:17.399Z,19.23
2022-09-17T20:31:43.943Z,16.73
2022-09-17T20:34:12.472Z,20.20
2022-09-17T20:36:39.001Z,18.52
2022-09-17T20:39:13.483Z,18.17
2022-09-17T20:41:43.496Z,20.15
2022-09-17T20:44:10.075Z,19.42
2022-09-17T20:46:36.806Z,20.02
2022-09-17T20:49:03.567Z,20.63
2022-09-17T20:51:30.773Z,20.75
2022-09-17T20:53:57.866Z,21.67
2022-09-17T20:56:31.697Z,23.05
2022-09-17T20:59:08.452Z,21.50
2022-09-17T21:03:10.248Z,22.58
2022-09-17T21:06:01.541Z,22.08
2022-09-17T21:10:45.001Z,22.27
2022-09-17T21:13:11.638Z,19.92
2022-09-17T21:15:38.187Z,20.27
2022-09-17T21:18:06.127Z,20.27
2022-09-17T21:20:37.661Z,20.73
2022-09-17T21:23:04.502Z,22.88
2022-09-17T21:25:31.112Z,20.42
2022-09-17T21:27:58.663Z,22.25
2022-09-17T21:30:25.593Z,24.23
2022-09-17T21:32:53.678Z,23.45
2022-09-17T21:35:20.222Z,22.38
2022-09-17T21:37:46.859Z,24.98
2022-09-17T21:40:13.442Z,19.25
2022-09-17T21:42:40.073Z,23.05
2022-09-17T21:45:06.936Z,21.30
2022-09-17T21:47:33.568Z,21.05
2022-09-17T21:50:00.064Z,17.70
2022-09-17T21:52:28.903Z,17.33
2022-09-17T21:54:55.537Z,17.45
2022-09-17T21:57:22.132Z,16.00
2022-09-17T21:59:48.605Z,14.35
2022-09-17T22:02:15.441Z,16.13
2022-09-17T22:04:41.932Z,13.40
2022-09-17T22:07:08.469Z,16.83
2022-09-17T22:09:35.280Z,14.57
2022-09-17T22:12:02.728Z,13.50
2022-09-17T22:14:29.225Z,12.73
2022-09-17T22:16:58.674Z,12.05
2022-09-17T22:19:26.126Z,13.35
2022-09-17T22:21:55.217Z,12.63
2022-09-17T22:24:23.009Z,11.60
2022-09-17T22:26:56.575Z,9.07
2022-09-17T22:29:25.469Z,9.93
2022-09-17T22:31:52.016Z,9.82
2022-09-17T22:34:20.946Z,9.23
2022-09-17T22:36:48.204Z,10.25
2022-09-17T22:39:15.328Z,9.90
2022-09-17T22:41:45.751Z,10.88
2022-09-17T22:44:16.718Z,11.18
2022-09-17T22:46:46.082Z,9.57
2022-09-17T22:49:12.844Z,9.85
2022-09-17T22:51:40.099Z,10.07
2022-09-17T22:54:07.325Z,9.80
2022-09-17T22:56:35.363Z,10.02
2022-09-17T22:59:02.033Z,9.00
2022-09-17T23:01:33.702Z,8.73
2022-09-17T23:04:01.210Z,9.73
2022-09-17T23:06:30.472Z,10.35
2022-09-17T23:08:57.658Z,10.10
2022-09-17T23:11:30.570Z,9.70
2022-09-17T23:14:01.972Z,10.05
2022-09-17T23:16:34.276Z,9.57
2022-09-17T23:19:02.274Z,8.82
2022-09-17T23:21:28.994Z,9.75
2022-09-17T23:23:55.605Z,9.85
2022-09-17T23:26:24.688Z,8.23
2022-09-17T23:28:51.731Z,8.18
2022-09-17T23:31:27.354Z,8.02
2022-09-17T23:33:56.086Z,8.40
2022-09-17T23:36:25.381Z,8.45
2022-09-17T23:38:53.268Z,8.98
2022-09-17T23:41:31.851Z,8.68
2022-09-17T23:44:01.579Z,9.85
2022-09-17T23:46:31.184Z,8.65
2022-09-17T23:48:58.292Z,9.00
2022-09-17T23:51:26.955Z,8.18
2022-09-17T23:53:54.510Z,6.97
2022-09-17T23:56:25.135Z,9.10
2022-09-17T23:58:52.855Z,8.80
